Time;durP1;ratioP1;P1;durP2;ratioP2;P2;SDS_P1;SDS_P2;PMS_P1;PMS_P2;Temp;Humidity;BMP_temperature;BMP_pressure;BME280_temperature;BME280_humidity;BME280_pressure;Samples;Min_cycle;Max_cycle;Signal;HPM_P1;HPM_P2
2022/04/28 00:01:18;;;;;;;1.98;1.77;;;;;;;2.13;100.00;100074.59;5131985;28;20480;-50
2022/04/28 00:03:44;;;;;;;3.22;1.98;;;;;;;2.11;100.00;100090.31;5131745;28;20054;-49
2022/04/28 00:06:10;;;;;;;6.35;2.17;;;;;;;2.15;100.00;100099.47;5132018;28;20058;-53
2022/04/28 00:08:37;;;;;;;8.10;2.10;;;;;;;2.17;100.00;100115.41;5131760;28;20538;-50
2022/04/28 00:11:03;;;;;;;2.85;2.17;;;;;;;2.13;100.00;100123.28;5131843;28;20111;-50
2022/04/28 00:13:29;;;;;;;4.18;2.03;;;;;;;2.08;100.00;100134.97;5131599;28;20051;-50
2022/04/28 00:15:56;;;;;;;5.40;2.28;;;;;;;2.04;100.00;100157.47;5131788;28;20069;-52
2022/04/28 00:18:22;;;;;;;2.33;2.08;;;;;;;2.07;100.00;100178.53;5131507;28;20059;-50
2022/04/28 00:20:48;;;;;;;2.53;1.98;;;;;;;2.03;100.00;100193.69;5131773;28;20047;-50
2022/04/28 00:23:15;;;;;;;3.70;2.17;;;;;;;2.04;100.00;100198.84;5131620;28;20051;-51
2022/04/28 00:25:41;;;;;;;6.30;2.88;;;;;;;2.01;100.00;100207.50;5131827;28;20053;-53
2022/04/28 00:28:07;;;;;;;3.75;2.15;;;;;;;2.00;100.00;100227.53;5131446;28;20096;-50
2022/04/28 00:30:33;;;;;;;4.78;2.50;;;;;;;2.01;100.00;100252.69;5131453;28;20073;-53
2022/04/28 00:33:00;;;;;;;4.07;2.33;;;;;;;1.93;100.00;100255.97;5131345;28;20054;-51
2022/04/28 00:35:26;;;;;;;4.88;2.10;;;;;;;1.94;100.00;100269.22;5131292;28;20046;-50
2022/04/28 00:37:52;;;;;;;2.70;2.30;;;;;;;1.88;100.00;100270.34;5131345;28;20043;-51
2022/04/28 00:40:19;;;;;;;4.28;2.25;;;;;;;1.85;100.00;100279.81;5131566;28;20047;-53
2022/04/28 00:42:45;;;;;;;4.55;2.85;;;;;;;1.83;100.00;100287.41;5131312;28;20043;-50
2022/04/28 00:45:11;;;;;;;5.25;2.65;;;;;;;1.81;100.00;100295.00;5131109;28;20059;-50
2022/04/28 00:50:41;;;;;;;3.15;2.30;;;;;;;1.77;100.00;100309.34;5131095;28;20062;-49
2022/04/28 00:53:11;;;;;;;4.65;2.50;;;;;;;1.70;100.00;100325.03;5130115;27;20051;-51
2022/04/28 00:55:37;;;;;;;6.38;2.67;;;;;;;1.71;100.00;100332.09;5131117;28;20043;-51
2022/04/28 00:58:04;;;;;;;6.47;3.38;;;;;;;1.69;100.00;100345.88;5130926;28;20054;-50
2022/04/28 01:00:30;;;;;;;5.60;2.75;;;;;;;1.71;100.00;100348.31;5131149;28;20513;-52
2022/04/28 01:02:56;;;;;;;8.77;3.10;;;;;;;1.67;100.00;100350.75;5130785;28;20058;-53
2022/04/28 01:05:23;;;;;;;6.00;3.05;;;;;;;1.67;100.00;100352.63;5131062;28;20058;-53
2022/04/28 01:07:49;;;;;;;9.52;2.72;;;;;;;1.68;100.00;100346.97;5130742;28;20047;-52
2022/04/28 01:10:15;;;;;;;8.65;3.22;;;;;;;1.63;100.00;100347.81;5130948;28;20051;-53
2022/04/28 01:12:43;;;;;;;6.05;2.95;;;;;;;1.66;100.00;100357.22;5130723;28;20051;-51
2022/04/28 01:15:10;;;;;;;6.30;2.70;;;;;;;1.60;100.00;100356.47;5130797;28;20051;-50
2022/04/28 01:17:36;;;;;;;5.82;2.95;;;;;;;1.62;100.00;100356.16;5130622;28;20043;-51
2022/04/28 01:20:02;;;;;;;11.55;4.97;;;;;;;1.56;100.00;100352.66;5130693;28;20074;-49
2022/04/28 01:22:29;;;;;;;9.40;4.07;;;;;;;1.54;100.00;100362.97;5130868;28;20047;-51
2022/04/28 01:24:56;;;;;;;6.72;3.00;;;;;;;1.51;100.00;100365.41;5130480;28;20058;-50
2022/04/28 01:27:25;;;;;;;4.18;2.58;;;;;;;1.42;100.00;100367.84;5130878;28;20062;-52
2022/04/28 01:29:51;;;;;;;7.65;2.28;;;;;;;1.39;100.00;100374.59;5130414;28;20059;-52
2022/04/28 01:32:18;;;;;;;4.07;2.67;;;;;;;1.37;100.00;100376.78;5130753;28;20043;-52
2022/04/28 01:34:44;;;;;;;4.82;2.33;;;;;;;1.37;100.00;100379.50;5130532;28;20043;-50
2022/04/28 01:37:10;;;;;;;8.77;4.72;;;;;;;1.37;100.00;100378.69;5130573;28;20047;-51
2022/04/28 01:39:37;;;;;;;11.32;4.60;;;;;;;1.38;100.00;100372.19;5130212;28;20054;-49
2022/04/28 01:42:05;;;;;;;9.63;4.32;;;;;;;1.40;100.00;100375.44;5130330;28;20047;-51
2022/04/28 01:44:32;;;;;;;11.80;4.35;;;;;;;1.39;100.00;100379.22;5130706;28;20055;-49
2022/04/28 01:46:59;;;;;;;9.55;4.40;;;;;;;1.42;100.00;100371.38;5130196;28;20051;-49
2022/04/28 01:49:26;;;;;;;5.03;2.88;;;;;;;1.39;100.00;100374.59;5130417;28;20089;-50
2022/04/28 01:57:21;;;;;;;4.53;3.63;;;;;;;1.27;100.00;100382.22;5130173;28;20054;-50
2022/04/28 01:59:47;;;;;;;8.52;3.55;;;;;;;1.25;100.00;100376.28;5130367;28;20100;-51
2022/04/28 02:02:13;;;;;;;8.13;3.58;;;;;;;1.15;100.00;100376.28;5130079;28;20054;-49
2022/04/28 02:04:39;;;;;;;6.00;3.47;;;;;;;1.15;100.00;100387.09;5131633;27;20072;-50
2022/04/28 02:07:07;;;;;;;5.97;2.88;;;;;;;1.11;100.00;100389.53;5133770;28;20046;-49
2022/04/28 02:09:33;;;;;;;6.00;2.58;;;;;;;1.10;100.00;100389.78;5133513;28;20522;-49
2022/04/28 02:12:00;;;;;;;7.57;3.58;;;;;;;1.11;100.00;100383.31;5133767;28;20047;-50
2022/04/28 02:14:26;;;;;;;15.13;4.93;;;;;;;1.06;100.00;100383.31;5133443;28;20054;-51
2022/04/28 02:16:52;;;;;;;5.97;2.85;;;;;;;1.06;100.00;100380.63;5133715;28;20428;-49
2022/04/28 02:19:18;;;;;;;7.88;4.07;;;;;;;0.97;100.00;100385.78;5133526;28;20055;-49
2022/04/28 02:21:45;;;;;;;6.95;3.53;;;;;;;0.96;100.00;100386.84;5133728;28;20099;-49
2022/04/28 02:24:11;;;;;;;6.32;3.25;;;;;;;0.93;100.00;100393.59;5133314;28;20050;-49
2022/04/28 02:26:37;;;;;;;7.53;3.95;;;;;;;0.90;100.00;100379.81;5133542;28;20047;-49
2022/04/28 02:29:04;;;;;;;9.15;3.85;;;;;;;0.96;100.00;100383.31;5133325;28;20055;-49
2022/04/28 02:31:30;;;;;;;10.13;3.53;;;;;;;0.91;100.00;100387.66;5133355;28;20058;-53
2022/04/28 02:33:57;;;;;;;6.07;3.42;;;;;;;0.94;100.00;100386.31;5133260;28;20054;-49
2022/04/28 02:36:24;;;;;;;4.22;3.25;;;;;;;0.88;100.00;100377.41;5133023;28;20055;-49
2022/04/28 02:38:51;;;;;;;5.93;3.30;;;;;;;0.89;100.00;100375.50;5133128;28;20493;-49
2022/04/28 02:41:20;;;;;;;5.15;3.30;;;;;;;0.86;100.00;100378.75;5133044;28;20058;-49
2022/04/28 02:43:47;;;;;;;5.80;3.40;;;;;;;0.82;100.00;100377.66;5133220;28;20471;-49
2022/04/28 02:46:14;;;;;;;5.70;3.13;;;;;;;0.85;100.00;100372.53;5132958;28;20047;-49
2022/04/28 02:48:40;;;;;;;5.72;3.50;;;;;;;0.80;100.00;100374.41;5133284;28;20100;-49
2022/04/28 02:51:06;;;;;;;8.13;3.50;;;;;;;0.84;100.00;100368.22;5132925;28;20047;-49
2022/04/28 02:53:32;;;;;;;5.35;2.90;;;;;;;0.86;100.00;100370.63;5133120;28;20516;-50
2022/04/28 02:55:59;;;;;;;5.25;3.10;;;;;;;0.90;100.00;100363.63;5132916;28;20058;-49
2022/04/28 02:58:25;;;;;;;6.72;2.88;;;;;;;0.91;100.00;100357.16;5132779;28;20051;-50
2022/04/28 03:00:51;;;;;;;5.88;3.10;;;;;;;0.93;100.00;100368.47;5132864;28;20051;-49
2022/04/28 03:03:18;;;;;;;4.95;3.05;;;;;;;0.99;100.00;100353.88;5132683;28;20051;-50
2022/04/28 03:11:14;;;;;;;6.53;3.78;;;;;;;1.09;100.00;100366.56;5132711;28;20100;-50
2022/04/28 03:13:40;;;;;;;3.47;2.75;;;;;;;1.11;100.00;100375.22;5132724;28;20069;-53
2022/04/28 03:16:07;;;;;;;5.68;3.60;;;;;;;1.39;100.00;100376.50;5132062;27;20051;-49
2022/04/28 03:18:34;;;;;;;4.95;3.63;;;;;;;1.95;100.00;100372.81;5132453;28;20418;-51
2022/04/28 03:21:00;;;;;;;3.95;2.40;;;;;;;2.68;100.00;100385.63;5132657;28;20096;-51
2022/04/28 03:23:26;;;;;;;5.93;2.60;;;;;;;3.29;100.00;100410.28;5132657;28;20111;-51
2022/04/28 03:25:53;;;;;;;6.50;3.20;;;;;;;3.87;100.00;100422.97;5132321;28;20054;-52
2022/04/28 03:28:19;;;;;;;5.35;3.30;;;;;;;4.00;100.00;100400.56;5132411;28;20111;-50
2022/04/28 03:30:46;;;;;;;3.30;2.70;;;;;;;3.43;100.00;100296.56;5132152;28;20047;-51
2022/04/28 03:33:12;;;;;;;5.55;2.80;;;;;;;3.07;100.00;100223.00;5132344;28;20524;-51
2022/04/28 03:35:39;;;;;;;7.78;3.45;;;;;;;3.01;100.00;100208.72;5132486;28;20047;-50
2022/04/28 03:38:07;;;;;;;3.50;2.55;;;;;;;3.28;100.00;100207.31;5132182;28;20051;-51
2022/04/28 03:40:33;;;;;;;4.45;2.90;;;;;;;4.21;100.00;100202.94;5132055;28;20055;-52
2022/04/28 03:43:00;;;;;;;6.22;3.13;;;;;;;5.09;100.00;100113.25;5132452;28;20499;-52
2022/04/28 03:45:27;;;;;;;5.53;2.90;;;;;;;5.80;100.00;99884.19;5132075;28;20047;-49
2022/04/28 03:47:53;;;;;;;4.22;2.63;;;;;;;6.31;100.00;99613.13;5132225;28;20494;-52
2022/04/28 03:50:19;;;;;;;2.65;2.30;;;;;;;6.76;100.00;99345.59;5132109;28;20051;-50
2022/04/28 03:52:46;;;;;;;5.85;2.70;;;;;;;7.12;100.00;99189.50;5131950;28;20517;-51
2022/04/28 03:55:12;;;;;;;4.10;2.38;;;;;;;7.52;100.00;99077.75;5131954;28;20051;-50
2022/04/28 03:57:38;;;;;;;3.33;2.63;;;;;;;7.87;100.00;99030.75;5131779;28;20055;-50
2022/04/28 04:00:06;;;;;;;8.88;2.33;;;;;;;8.24;100.00;98995.03;5132095;28;20550;-49
2022/04/28 04:02:33;;;;;;;3.17;2.40;;;;;;;8.58;100.00;98982.56;5131790;28;20047;-50
2022/04/28 04:04:59;;;;;;;5.18;2.30;;;;;;;8.77;100.00;98972.84;5131907;28;20051;-51
2022/04/28 04:07:29;;;;;;;3.15;2.55;;;;;;;7.78;100.00;98992.69;5131852;28;20490;-54
2022/04/28 04:09:56;;;;;;;2.55;2.30;;;;;;;6.96;100.00;98984.19;5131611;28;20047;-51
2022/04/28 04:12:22;;;;;;;5.32;2.30;;;;;;;6.36;100.00;98995.66;5131582;28;20524;-49
2022/04/28 04:14:48;;;;;;;3.45;2.40;;;;;;;5.93;100.00;99044.34;5131934;28;20099;-51
2022/04/28 04:17:15;;;;;;;4.10;2.30;;;;;;;5.90;100.00;99094.78;5131678;28;20471;-50
2022/04/28 04:19:41;;;;;;;5.20;2.88;;;;;;;6.74;100.00;99149.75;5131717;28;20149;-51
2022/04/28 04:22:08;;;;;;;5.40;2.13;;;;;;;7.85;100.00;99082.16;5131528;28;20055;-51
2022/04/28 04:24:35;;;;;;;4.18;2.80;;;;;;;8.61;100.00;98987.34;5131419;28;20103;-50
2022/04/28 04:27:03;;;;;;;4.45;2.33;;;;;;;9.30;100.00;98984.13;5131452;27;20150;-50
2022/04/28 04:29:29;;;;;;;5.65;2.60;;;;;;;9.79;100.00;99008.09;5131531;28;20046;-51
2022/04/28 04:34:40;;;;;;;4.63;2.35;;;;;;;10.73;100.00;99083.34;5131400;28;20051;-53
2022/04/28 04:37:06;;;;;;;3.72;2.50;;;;;;;11.09;100.00;99111.28;5131508;28;20050;-54
2022/04/28 04:39:32;;;;;;;3.83;2.78;;;;;;;11.32;100.00;99153.19;5131095;28;20398;-52
2022/04/28 04:41:59;;;;;;;5.03;2.50;;;;;;;11.39;100.00;99179.16;5131261;28;20142;-54
2022/04/28 04:44:25;;;;;;;6.60;2.50;;;;;;;11.70;100.00;99192.56;5131012;28;20047;-54
2022/04/28 04:46:52;;;;;;;4.82;2.22;;;;;;;12.20;100.00;99217.97;5131114;28;20062;-53
2022/04/28 04:49:18;;;;;;;5.13;2.60;;;;;;;12.67;100.00;99263.25;5130885;28;20410;-54
2022/04/28 04:51:44;;;;;;;6.18;2.45;;;;;;;13.07;100.00;99280.97;5130797;28;20051;-54
2022/04/28 04:54:11;;;;;;;3.72;2.47;;;;;;;13.39;100.00;99311.59;5131094;28;20051;-54
2022/04/28 04:56:38;;;;;;;3.72;2.47;;;;;;;13.82;100.00;99327.66;5130848;28;20047;-54
2022/04/28 04:59:04;;;;;;;9.18;2.88;;;;;;;14.26;100.00;99348.81;5130961;28;20055;-55
2022/04/28 05:01:31;;;;;;;3.97;2.95;;;;;;;14.46;100.00;99396.19;5130893;28;20467;-53
2022/04/28 05:03:57;;;;;;;7.70;3.53;;;;;;;14.07;100.00;99400.28;5130917;28;20536;-54
2022/04/28 05:06:24;;;;;;;4.22;2.53;;;;;;;14.12;100.00;99402.69;5131168;28;20826;-54
2022/04/28 05:08:50;;;;;;;4.28;3.03;;;;;;;13.85;100.00;99395.78;5131118;28;20051;-53
2022/04/28 05:11:17;;;;;;;4.95;2.67;;;;;;;13.61;100.00;99372.34;5130685;28;20054;-54
2022/04/28 05:13:43;;;;;;;4.68;2.80;;;;;;;13.47;100.00;99373.03;5130598;28;20047;-52
2022/04/28 05:16:10;;;;;;;3.92;2.67;;;;;;;13.90;100.00;99365.13;5130844;28;20055;-48
2022/04/28 05:18:37;;;;;;;4.00;2.22;;;;;;;14.19;100.00;99396.41;5130462;28;20099;-49
2022/04/28 05:21:03;;;;;;;8.43;2.80;;;;;;;14.55;100.00;99424.28;5130550;28;20051;-49
2022/04/28 05:23:29;;;;;;;5.53;3.00;;;;;;;14.89;100.00;99441.41;5130472;28;20051;-49
2022/04/28 05:25:56;;;;;;;6.03;2.78;;;;;;;15.19;100.00;99446.66;5130568;28;20047;-50
2022/04/28 05:28:26;;;;;;;3.22;2.92;;;;;;;15.68;100.00;99461.03;5130449;28;20141;-54
2022/04/28 05:30:54;;;;;;;2.97;2.33;;;;;;;15.51;100.00;99487.41;5130383;28;20076;-55
2022/04/28 05:33:20;;;;;;;3.92;2.30;;;;;;;15.75;100.00;99492.25;5130658;28;20047;-53
2022/04/28 05:35:47;;;;;;;4.47;3.00;;;;;;;15.70;100.00;99491.84;5130550;28;20054;-53
2022/04/28 05:38:13;;;;;;;4.65;2.92;;;;;;;15.44;100.00;99492.94;5130223;28;20051;-55
2022/04/28 05:40:41;;;;;;;4.70;2.80;;;;;;;14.76;100.00;99487.88;5133507;28;20059;-55
2022/04/28 05:45:51;;;;;;;6.80;2.80;;;;;;;16.17;100.00;99487.97;5134055;28;20049;-54
2022/04/28 05:48:19;;;;;;;5.03;3.00;;;;;;;16.71;100.00;99530.22;5133877;28;20043;-50
2022/04/28 05:50:47;;;;;;;7.20;3.20;;;;;;;16.86;100.00;99536.56;5133873;28;20064;-51
2022/04/28 05:53:13;;;;;;;6.47;3.20;;;;;;;16.97;100.00;99533.78;5133678;28;20047;-54
2022/04/28 05:55:40;;;;;;;3.80;3.00;;;;;;;17.29;100.00;99549.50;5133786;28;20043;-52
2022/04/28 05:58:07;;;;;;;4.10;3.38;;;;;;;17.04;100.00;99555.13;5133556;28;20047;-52
2022/04/28 06:00:34;;;;;;;7.18;3.65;;;;;;;17.38;100.00;99545.13;5133539;28;20051;-50
2022/04/28 06:03:01;;;;;;;6.00;3.40;;;;;;;17.56;100.00;99541.47;5133952;28;20043;-54
2022/04/28 06:05:27;;;;;;;7.63;3.65;;;;;;;17.19;100.00;99553.91;5133811;28;20047;-51
2022/04/28 06:07:54;;;;;;;5.53;3.17;;;;;;;16.71;100.00;99541.31;5133473;28;20140;-50
2022/04/28 06:10:20;;;;;;;5.35;2.15;;;;;;;16.65;100.00;99531.81;5133611;28;20046;-51
2022/04/28 06:12:46;;;;;;;3.53;2.50;;;;;;;17.14;100.00;99544.03;5133474;28;20047;-53
2022/04/28 06:15:14;;;;;;;4.75;2.13;;;;;;;17.62;100.00;99556.50;5133569;28;20047;-54
2022/04/28 06:17:40;;;;;;;5.50;2.20;;;;;;;16.26;100.00;99561.44;5133682;28;20517;-49
2022/04/28 06:20:07;;;;;;;4.80;2.35;;;;;;;14.96;100.00;99523.47;5133099;28;20051;-49
2022/04/28 06:22:33;;;;;;;12.20;8.35;;;;;;;14.83;100.00;99495.41;5133364;28;20047;-50
2022/04/28 06:25:00;;;;;;;6.63;2.33;;;;;;;15.83;100.00;99484.78;5133239;28;20460;-51
2022/04/28 06:27:28;;;;;;;4.22;2.38;;;;;;;16.26;100.00;99526.31;5133173;28;20047;-52
2022/04/28 06:29:54;;;;;;;4.10;2.30;;;;;;;16.69;100.00;99554.75;5133334;28;20047;-52
2022/04/28 06:32:20;;;;;;;2.25;2.05;;;;;;;16.92;100.00;99556.34;5132914;28;20089;-49
2022/04/28 06:34:47;;;;;;;7.00;2.00;;;;;;;17.48;100.00;99573.22;5132927;28;20203;-53
2022/04/28 06:37:14;;;;;;;3.33;2.28;;;;;;;17.84;100.00;99574.66;5133085;28;20055;-51
2022/04/28 06:39:41;;;;;;;4.95;2.47;;;;;;;18.62;100.00;99580.88;5132903;28;20043;-51
2022/04/28 06:42:08;;;;;;;2.67;2.47;;;;;;;19.34;100.00;99599.72;5132977;28;20058;-52
2022/04/28 06:44:36;;;;;;;9.80;3.40;;;;;;;19.60;100.00;99595.44;5132671;28;20083;-51
2022/04/28 06:47:02;;;;;;;5.57;2.55;;;;;;;19.37;100.00;99596.09;5132908;28;20043;-54
2022/04/28 06:49:28;;;;;;;3.22;2.10;;;;;;;19.07;100.00;99608.72;5132398;28;20066;-54
2022/04/28 06:51:54;;;;;;;3.08;2.00;;;;;;;17.45;100.00;99605.28;5131115;27;20419;-51
2022/04/28 06:54:20;;;;;;;4.50;2.42;;;;;;;15.97;100.00;99581.56;5132733;28;20047;-51
2022/04/28 06:56:47;;;;;;;6.18;3.80;;;;;;;15.68;100.00;99546.72;5133139;28;20043;-53
2022/04/28 06:59:14;;;;;;;2.38;2.10;;;;;;;15.11;100.00;99551.97;5132558;28;20051;-52
2022/04/28 07:01:40;;;;;;;2.42;1.90;;;;;;;15.66;100.00;99546.28;5132945;28;20051;-52
2022/04/28 07:04:06;;;;;;;1.85;1.75;;;;;;;16.54;100.00;99569.00;5132694;28;20047;-50
2022/04/28 07:06:33;;;;;;;3.88;2.30;;;;;;;16.62;100.00;99576.09;5132647;28;20051;-50
2022/04/28 07:08:59;;;;;;;2.85;2.00;;;;;;;16.65;100.00;99556.72;5132416;28;20055;-50
2022/04/28 07:11:25;;;;;;;3.85;2.30;;;;;;;17.42;100.00;99558.97;5132295;28;20047;-50
2022/04/28 07:13:52;;;;;;;2.95;2.00;;;;;;;18.13;100.00;99576.47;5132499;28;20063;-54
2022/04/28 07:16:19;;;;;;;3.97;2.00;;;;;;;18.38;100.00;99570.78;5132546;28;20047;-52
2022/04/28 07:18:45;;;;;;;4.90;2.50;;;;;;;18.39;100.00;99592.56;5132265;28;20047;-54
2022/04/28 07:21:11;;;;;;;4.45;2.70;;;;;;;18.74;100.00;99593.53;5132239;28;20051;-54
2022/04/28 07:23:38;;;;;;;4.30;2.10;;;;;;;17.82;100.00;99596.47;5132155;28;20506;-52
2022/04/28 07:26:04;;;;;;;5.70;2.10;;;;;;;17.94;100.00;99614.66;5132262;28;20055;-53
2022/04/28 07:28:30;;;;;;;4.90;2.10;;;;;;;18.28;100.00;99606.50;5132624;28;20051;-53
2022/04/28 07:30:56;;;;;;;3.28;2.97;;;;;;;18.92;100.00;99604.47;5132332;28;20554;-54
2022/04/28 07:33:23;;;;;;;2.88;1.88;;;;;;;19.36;100.00;99623.13;5132316;28;20104;-52
2022/04/28 07:35:49;;;;;;;3.75;1.98;;;;;;;19.90;100.00;99623.31;5132213;28;20082;-54
2022/04/28 07:38:16;;;;;;;5.82;2.50;;;;;;;18.75;100.00;99626.44;5132116;28;20043;-53
2022/04/28 07:40:42;;;;;;;6.78;2.17;;;;;;;17.05;100.00;99614.88;5131890;28;20469;-52
2022/04/28 07:43:08;;;;;;;2.42;2.20;;;;;;;15.78;100.00;99595.72;5132056;28;20047;-51
2022/04/28 07:45:34;;;;;;;3.50;2.47;;;;;;;15.12;100.00;99564.56;5131958;28;20501;-54
2022/04/28 07:48:01;;;;;;;2.75;2.17;;;;;;;14.95;100.00;99561.31;5131860;28;20533;-50
2022/04/28 07:50:29;;;;;;;8.48;2.97;;;;;;;15.90;100.00;99562.19;5131770;28;20150;-52
2022/04/28 07:52:55;;;;;;;10.00;2.10;;;;;;;17.22;100.00;99591.09;5132135;28;20047;-54
2022/04/28 07:55:21;;;;;;;7.38;3.50;;;;;;;18.16;100.00;99609.78;5131989;28;20051;-55
2022/04/28 07:57:48;;;;;;;2.30;2.10;;;;;;;18.50;100.00;99623.81;5131814;28;20047;-53
2022/04/28 08:00:15;;;;;;;6.15;2.95;;;;;;;18.85;100.00;99630.31;5131907;28;20047;-54
2022/04/28 08:02:41;;;;;;;3.53;2.67;;;;;;;18.09;100.00;99632.00;5131329;27;20046;-52
2022/04/28 08:05:08;;;;;;;6.72;3.00;;;;;;;17.25;100.00;99629.09;5131569;28;20069;-50
2022/04/28 08:07:35;;;;;;;32.75;5.22;;;;;;;17.19;100.00;99623.16;5131597;28;20521;-51
2022/04/28 08:10:03;;;;;;;36.55;5.72;;;;;;;16.89;100.00;99618.03;5131560;28;20063;-52
2022/04/28 08:12:30;;;;;;;10.50;3.67;;;;;;;17.64;100.00;99615.13;5131457;28;20465;-51
2022/04/28 08:14:56;;;;;;;2.03;1.75;;;;;;;18.31;100.00;99638.22;5131313;28;20047;-53
2022/04/28 08:17:22;;;;;;;3.92;1.80;;;;;;;18.46;100.00;99625.03;5131332;28;20554;-54
2022/04/28 08:19:48;;;;;;;4.60;2.13;;;;;;;18.97;100.00;99629.84;5131366;28;20055;-55
2022/04/28 08:22:14;;;;;;;4.63;2.35;;;;;;;19.04;100.00;99631.75;5131702;28;20521;-53
2022/04/28 08:24:41;;;;;;;10.93;2.92;;;;;;;17.67;100.00;99644.06;5131062;28;20100;-55
2022/04/28 08:27:07;;;;;;;4.80;2.03;;;;;;;17.27;100.00;99635.81;5131634;28;20054;-54
2022/04/28 08:29:34;;;;;;;9.30;2.70;;;;;;;17.39;100.00;99634.59;5131076;28;20058;-54
2022/04/28 08:32:00;;;;;;;13.60;3.50;;;;;;;17.77;100.00;99654.34;5131184;28;20516;-53
2022/04/28 08:34:26;;;;;;;4.63;1.63;;;;;;;17.49;97.56;99669.03;5130965;28;20055;-53
2022/04/28 08:36:52;;;;;;;5.93;1.73;;;;;;;17.45;95.16;99668.25;5131062;28;20047;-54
2022/04/28 08:39:19;;;;;;;1.95;1.67;;;;;;;17.77;96.41;99655.13;5130936;28;20054;-56
2022/04/28 08:41:47;;;;;;;8.73;3.47;;;;;;;18.33;89.50;99669.16;5130991;28;20043;-53
2022/04/28 08:44:18;;;;;;;8.10;2.30;;;;;;;18.69;93.41;99671.69;5130867;28;20478;-53
2022/04/28 08:46:53;;;;;;;10.77;3.08;;;;;;;18.90;86.42;99665.22;5130836;28;20092;-54
2022/04/28 08:49:22;;;;;;;7.88;2.20;;;;;;;19.00;81.12;99684.59;5130864;28;20051;-52
2022/04/28 08:51:51;;;;;;;7.90;3.17;;;;;;;19.03;85.41;99680.19;5130794;28;20532;-53
2022/04/28 08:54:17;;;;;;;3.55;1.98;;;;;;;19.20;80.94;99682.03;5130941;28;20047;-54
2022/04/28 08:56:44;;;;;;;9.45;2.20;;;;;;;19.40;84.54;99681.47;5130865;28;20051;-52
2022/04/28 08:59:13;;;;;;;2.15;1.95;;;;;;;19.39;84.45;99675.13;5130731;28;20043;-51
2022/04/28 09:01:39;;;;;;;3.20;2.10;;;;;;;18.83;84.32;99685.53;5130593;28;20054;-54
2022/04/28 09:04:05;;;;;;;7.07;2.90;;;;;;;17.93;90.29;99668.53;5130670;28;20047;-52
2022/04/28 09:06:34;;;;;;;2.88;2.10;;;;;;;17.25;92.56;99678.97;5130605;28;20459;-54
2022/04/28 09:09:04;;;;;;;2.33;2.13;;;;;;;16.35;97.09;99665.03;5130482;28;20407;-53
2022/04/28 09:11:32;;;;;;;4.93;2.30;;;;;;;15.60;100.00;99648.13;5130406;28;20142;-54
2022/04/28 09:16:45;;;;;;;6.97;3.38;;;;;;;14.34;100.00;99638.06;5126874;28;20055;-53
2022/04/28 09:19:14;;;;;;;6.78;2.55;;;;;;;14.53;100.00;99623.31;5130299;28;20058;-54
2022/04/28 09:21:40;;;;;;;6.90;2.10;;;;;;;14.94;100.00;99628.75;5130479;28;20494;-54
2022/04/28 09:24:09;;;;;;;4.30;2.63;;;;;;;15.16;100.00;99642.72;5130647;28;20051;-54
2022/04/28 09:26:36;;;;;;;4.63;3.28;;;;;;;15.72;99.21;99649.78;5130427;28;20078;-51
2022/04/28 09:29:03;;;;;;;3.58;1.77;;;;;;;16.55;95.70;99654.38;5130400;28;20506;-51
2022/04/28 09:31:34;;;;;;;5.97;2.15;;;;;;;17.30;89.95;99664.72;5130298;28;20524;-54
2022/04/28 09:34:05;;;;;;;2.28;2.08;;;;;;;16.73;88.45;99670.22;5130175;28;20050;-52
2022/04/28 09:36:32;;;;;;;3.25;2.08;;;;;;;16.07;90.12;99673.25;5130350;28;20501;-51
2022/04/28 09:38:58;;;;;;;12.68;2.28;;;;;;;15.20;89.38;99676.69;5130231;28;20399;-54
2022/04/28 09:44:12;;;;;;;2.45;1.95;;;;;;;15.93;83.45;99680.31;5130333;28;20096;-52
2022/04/28 09:46:40;;;;;;;5.40;2.47;;;;;;;16.58;81.63;99688.81;5130399;28;20130;-50
2022/04/28 09:49:09;;;;;;;4.95;2.80;;;;;;;17.06;84.98;99678.19;5130317;28;20051;-50
2022/04/28 09:51:37;;;;;;;6.95;2.00;;;;;;;16.76;80.01;99684.13;5130358;28;20070;-49
2022/04/28 09:54:07;;;;;;;4.60;2.30;;;;;;;16.57;80.67;99690.00;5129922;28;20052;-53
2022/04/28 09:56:34;;;;;;;4.25;2.67;;;;;;;16.65;79.79;99678.53;5130556;28;20071;-52
2022/04/28 09:59:01;;;;;;;3.20;2.15;;;;;;;16.53;76.73;99678.09;5130236;28;20051;-54
2022/04/28 10:01:28;;;;;;;11.82;3.78;;;;;;;16.85;81.07;99675.41;5130412;28;20501;-50
2022/04/28 10:03:55;;;;;;;6.20;2.20;;;;;;;17.23;78.16;99679.38;5130049;28;20047;-54
2022/04/28 10:06:24;;;;;;;4.47;2.25;;;;;;;17.25;71.53;99693.59;5130202;28;20051;-51
2022/04/28 10:08:51;;;;;;;5.15;2.42;;;;;;;17.37;72.87;99693.22;5129861;28;20047;-51
2022/04/28 10:11:22;;;;;;;5.47;2.38;;;;;;;16.97;68.67;99697.19;5130220;28;20062;-50
2022/04/28 10:13:49;;;;;;;5.60;1.90;;;;;;;16.98;68.22;99701.53;5130156;28;20391;-52
2022/04/28 10:16:18;;;;;;;6.78;2.15;;;;;;;17.01;69.05;99697.97;5129796;28;20065;-51
2022/04/28 10:18:49;;;;;;;4.82;2.45;;;;;;;16.93;68.68;99701.94;5129801;28;20459;-51
2022/04/28 10:21:20;;;;;;;5.20;2.78;;;;;;;17.04;69.69;99704.72;5129599;28;20059;-54
2022/04/28 10:32:33;;;;;;;7.60;2.58;;;;;;;15.57;62.34;99717.19;5133321;28;19965;-50
2022/04/28 10:35:07;;;;;;;5.53;1.70;;;;;;;14.22;61.38;99718.28;5133098;28;20407;-53
2022/04/28 10:37:35;;;;;;;4.40;2.08;;;;;;;14.28;62.81;99704.97;5132927;28;20079;-53
2022/04/28 10:40:04;;;;;;;8.90;2.90;;;;;;;14.41;62.95;99705.50;5132591;28;20221;-54
2022/04/28 10:42:59;;;;;;;4.35;2.70;;;;;;;14.64;63.94;99708.94;5132896;28;20498;-55
2022/04/28 10:45:25;;;;;;;5.35;1.25;;;;;;;14.72;61.08;99718.06;5130744;28;20054;-52
2022/04/28 10:48:17;;;;;;;2.15;1.40;;;;;;;14.42;60.40;99715.34;5132658;28;20137;-54
2022/04/28 10:51:13;;;;;;;15.13;5.10;;;;;;;14.67;63.18;99699.13;5133046;28;20051;-55
2022/04/28 10:54:00;;;;;;;10.30;3.83;;;;;;;14.90;65.83;99701.69;5129309;28;20047;-52
2022/04/28 10:56:28;;;;;;;7.22;1.67;;;;;;;15.30;65.68;99693.34;5132706;28;20048;-52
2022/04/28 10:59:00;;;;;;;3.75;1.98;;;;;;;15.63;69.00;99693.56;5132760;28;20047;-54
2022/04/28 11:01:28;;;;;;;7.22;3.13;;;;;;;15.06;68.41;99696.69;5132274;28;20051;-53
2022/04/28 11:03:56;;;;;;;4.70;2.13;;;;;;;14.66;66.06;99694.75;5132590;28;20422;-52
2022/04/28 11:06:24;;;;;;;4.90;1.92;;;;;;;14.30;67.02;99697.91;5132608;28;20057;-54
2022/04/28 11:08:53;;;;;;;4.28;1.88;;;;;;;14.18;66.40;99694.59;5132229;28;20502;-51
2022/04/28 11:11:20;;;;;;;4.80;1.65;;;;;;;13.96;66.01;99694.34;5132373;28;20051;-54
2022/04/28 11:13:56;;;;;;;4.53;2.33;;;;;;;13.62;66.83;99702.53;5132600;28;20051;-51
2022/04/28 11:16:22;;;;;;;3.22;1.70;;;;;;;13.53;67.03;99703.97;5132513;28;20047;-50
2022/04/28 11:18:48;;;;;;;2.25;1.60;;;;;;;13.49;67.36;99697.63;5132685;28;20047;-54
2022/04/28 11:21:15;;;;;;;3.60;1.40;;;;;;;13.44;66.68;99704.25;5132670;28;20100;-52
2022/04/28 11:23:43;;;;;;;3.15;1.70;;;;;;;13.28;63.17;99706.38;5132633;28;20383;-52
2022/04/28 11:26:10;;;;;;;1.67;1.30;;;;;;;13.04;64.72;99704.78;5132503;28;20051;-52
2022/04/28 11:28:37;;;;;;;3.85;1.67;;;;;;;12.86;66.74;99696.22;5132728;28;20101;-52
2022/04/28 11:31:08;;;;;;;2.17;1.27;;;;;;;12.92;69.39;99687.28;5132518;28;20112;-52
2022/04/28 11:33:35;;;;;;;4.53;1.33;;;;;;;13.13;72.34;99697.06;5132012;28;20058;-53
2022/04/28 11:36:02;;;;;;;5.25;1.30;;;;;;;13.26;71.26;99697.69;5132149;28;20438;-51
2022/04/28 11:38:31;;;;;;;1.70;1.23;;;;;;;13.29;70.68;99700.47;5131222;27;20053;-54
2022/04/28 11:41:03;;;;;;;5.07;1.58;;;;;;;13.40;78.18;99690.44;5131922;28;20047;-55
2022/04/28 11:43:31;;;;;;;6.60;2.15;;;;;;;13.24;73.37;99689.81;5131987;28;20047;-55
2022/04/28 11:45:58;;;;;;;5.03;2.60;;;;;;;13.17;72.83;99687.69;5131806;28;20142;-53
2022/04/28 11:48:28;;;;;;;5.97;1.80;;;;;;;13.28;71.97;99687.88;5131829;28;20051;-54
2022/04/28 11:51:00;;;;;;;2.42;1.40;;;;;;;13.28;68.41;99687.88;5131978;28;20115;-55
2022/04/28 11:53:38;;;;;;;7.88;2.33;;;;;;;13.31;69.56;99697.38;5132163;28;20532;-57
2022/04/28 11:56:14;;;;;;;7.50;2.70;;;;;;;13.21;70.49;99690.50;5131703;28;20058;-57
2022/04/28 11:58:40;;;;;;;6.68;2.55;;;;;;;13.32;70.62;99685.97;5131865;28;20063;-56
2022/04/28 12:01:06;;;;;;;9.70;3.78;;;;;;;13.36;68.49;99689.59;5131485;28;20077;-55